createdAt,value
2022-12-19T00:00:17.028Z,102764.42
2022-12-19T00:03:05.967Z,102761.89
2022-12-19T00:05:44.199Z,102754.10
2022-12-19T00:08:17.355Z,102752.17
2022-12-19T00:10:56.220Z,102753.66
2022-12-19T00:13:26.647Z,102752.04
2022-12-19T00:15:59.989Z,102756.95
2022-12-19T00:18:28.729Z,102747.70
2022-12-19T00:20:59.977Z,102754.27
2022-12-19T00:23:31.035Z,102747.27
2022-12-19T00:26:09.697Z,102745.30
2022-12-19T00:28:39.043Z,102752.78
2022-12-19T00:31:08.312Z,102759.35
2022-12-19T00:33:43.514Z,102764.91
2022-12-19T00:36:24.286Z,102773.27
2022-12-19T00:38:57.914Z,102771.47
2022-12-19T00:41:35.392Z,102768.76
2022-12-19T00:44:10.203Z,102770.41
2022-12-19T00:46:39.180Z,102772.21
2022-12-19T00:49:07.975Z,102772.95
2022-12-19T00:51:37.877Z,102776.38
2022-12-19T00:54:12.359Z,102774.75
2022-12-19T00:56:41.916Z,102767.88
2022-12-19T00:59:11.008Z,102764.29
2022-12-19T01:01:42.053Z,102766.55
2022-12-19T01:04:28.256Z,102762.97
2022-12-19T01:07:01.921Z,102767.88
2022-12-19T01:09:35.229Z,102763.41
2022-12-19T01:12:33.873Z,102768.48
2022-12-19T01:15:04.888Z,102766.69
2022-12-19T01:17:37.026Z,102757.45
2022-12-19T01:20:19.111Z,102756.53
2022-12-19T01:23:00.513Z,102747.30
2022-12-19T01:25:29.636Z,102738.63
2022-12-19T01:27:58.517Z,102736.70
2022-12-19T01:30:29.175Z,102736.53
2022-12-19T01:33:00.846Z,102735.48
2022-12-19T01:35:29.797Z,102736.23
2022-12-19T01:38:06.569Z,102744.75
2022-12-19T01:40:48.114Z,102741.03
2022-12-19T01:43:17.598Z,102731.63
2022-12-19T01:45:50.844Z,102732.36
2022-12-19T01:48:28.365Z,102728.91
2022-12-19T01:51:01.371Z,102726.38
2022-12-19T01:53:46.438Z,102722.95
2022-12-19T01:56:29.201Z,102728.03
2022-12-19T01:59:06.511Z,102729.52
2022-12-19T02:01:51.011Z,102726.10
2022-12-19T02:04:24.893Z,102727.72
2022-12-19T02:06:58.413Z,102724.91
2022-12-19T02:09:27.827Z,102714.59
2022-12-19T02:11:58.727Z,102708.47
2022-12-19T02:14:29.205Z,102708.47
2022-12-19T02:17:05.880Z,102704.31
2022-12-19T02:19:58.985Z,102698.93
2022-12-19T02:22:41.364Z,102694.30
2022-12-19T02:25:31.419Z,102704.91
2022-12-19T02:28:38.681Z,102707.13
2022-12-19T02:31:17.871Z,102700.73
2022-12-19T02:34:08.458Z,102691.63
2022-12-19T02:36:46.829Z,102697.87
2022-12-19T02:39:26.573Z,102699.95
2022-12-19T02:41:59.574Z,102697.70
2022-12-19T02:44:33.352Z,102699.80
2022-12-19T02:47:05.459Z,102688.28
2022-12-19T02:49:37.163Z,102693.81
2022-12-19T02:52:12.908Z,102682.48
2022-12-19T02:54:46.494Z,102687.84
2022-12-19T02:57:24.410Z,102694.21
2022-12-19T03:00:06.172Z,102690.38
2022-12-19T03:02:51.191Z,102684.53
2022-12-19T03:05:42.076Z,102686.61
2022-12-19T03:08:24.378Z,102680.17
2022-12-19T03:11:00.388Z,102682.09
2022-12-19T03:13:34.217Z,102679.11
2022-12-19T03:16:08.333Z,102672.84
2022-12-19T03:18:38.717Z,102670.59
2022-12-19T03:21:15.532Z,102675.33
2022-12-19T03:23:53.181Z,102669.66
2022-12-19T03:26:31.140Z,102676.94
2022-12-19T03:29:07.812Z,102667.22
2022-12-19T03:31:38.982Z,102676.88
2022-12-19T03:34:16.838Z,102681.63
2022-12-19T03:36:54.663Z,102673.56
2022-12-19T03:39:29.896Z,102669.68
2022-12-19T03:42:22.287Z,102675.30
2022-12-19T03:44:54.034Z,102675.75
2022-12-19T03:47:34.500Z,102672.89
2022-12-19T03:50:07.081Z,102671.83
2022-12-19T03:52:45.466Z,102674.06
2022-12-19T03:55:24.424Z,102666.74
2022-12-19T03:57:58.317Z,102663.89
2022-12-19T04:00:29.740Z,102662.50
2022-12-19T04:03:00.698Z,102650.59
2022-12-19T04:05:30.087Z,102647.59
2022-12-19T04:08:06.158Z,102638.79
2022-12-19T04:10:48.001Z,102635.94
2022-12-19T04:13:27.027Z,102624.06
2022-12-19T04:16:06.942Z,102628.79
2022-12-19T04:18:37.620Z,102621.79
2022-12-19T04:21:15.119Z,102618.94
2022-12-19T04:23:49.708Z,102607.76
2022-12-19T04:26:31.070Z,102615.02
2022-12-19T04:29:04.055Z,102613.66
2022-12-19T04:31:33.022Z,102613.19
2022-12-19T04:34:02.316Z,102606.16
2022-12-19T04:36:32.473Z,102600.80
2022-12-19T04:39:01.498Z,102584.58
2022-12-19T04:41:31.065Z,102587.84
2022-12-19T04:44:00.537Z,102591.10
2022-12-19T04:46:32.821Z,102584.10
2022-12-19T04:49:02.617Z,102581.39
2022-12-19T04:51:31.752Z,102575.13
2022-12-19T04:54:02.936Z,102569.20
2022-12-19T04:56:31.763Z,102580.77
2022-12-19T04:59:02.131Z,102584.03
2022-12-19T05:01:31.545Z,102572.13
2022-12-19T05:04:04.349Z,102572.86
2022-12-19T05:06:34.035Z,102566.01
2022-12-19T05:09:03.296Z,102559.89
2022-12-19T05:11:32.823Z,102563.19
2022-12-19T05:14:02.313Z,102564.66
2022-12-19T05:16:31.504Z,102567.91
2022-12-19T05:19:01.927Z,102572.78
2022-12-19T05:21:31.005Z,102574.28
2022-12-19T05:24:00.362Z,102575.02
2022-12-19T05:26:29.314Z,102570.51
2022-12-19T05:28:58.445Z,102574.34
2022-12-19T05:31:27.545Z,102574.20
2022-12-19T05:33:56.469Z,102572.41
2022-12-19T05:36:32.127Z,102571.34
2022-12-19T05:39:04.312Z,102571.92
2022-12-19T05:41:33.376Z,102562.44
2022-12-19T05:44:03.200Z,102570.75
2022-12-19T05:46:32.396Z,102567.89
2022-12-19T05:49:01.425Z,102567.55
2022-12-19T05:51:30.859Z,102564.88
2022-12-19T05:54:02.888Z,102557.88
2022-12-19T05:56:31.918Z,102559.34
2022-12-19T05:59:03.683Z,102562.45
2022-12-19T06:01:37.068Z,102565.52
2022-12-19T06:04:07.877Z,102562.70
2022-12-19T06:06:38.707Z,102563.24
2022-12-19T06:09:08.960Z,102563.82
2022-12-19T06:11:38.143Z,102571.24
2022-12-19T06:14:07.164Z,102579.36
2022-12-19T06:16:39.624Z,102577.59
2022-12-19T06:19:09.512Z,102585.56
2022-12-19T06:21:45.449Z,102586.14
2022-12-19T06:24:18.086Z,102582.55
2022-12-19T06:26:47.360Z,102578.08
2022-12-19T06:29:18.618Z,102578.81
2022-12-19T06:31:47.461Z,102576.83
2022-12-19T06:34:46.955Z,102564.94
2022-12-19T06:37:09.195Z,102569.83
2022-12-19T06:39:38.483Z,102556.88
2022-12-19T06:42:24.886Z,102547.51
2022-12-19T06:44:57.286Z,102552.25
2022-12-19T06:47:28.545Z,102557.11
2022-12-19T06:49:58.907Z,102554.44
2022-12-19T06:52:27.666Z,102563.64
2022-12-19T06:54:57.277Z,102565.10
2022-12-19T06:57:26.894Z,102560.94
2022-12-19T06:59:57.969Z,102571.03
2022-12-19T07:02:31.392Z,102575.20
2022-12-19T07:05:10.166Z,102572.67
2022-12-19T07:07:40.752Z,102573.55
2022-12-19T07:10:12.887Z,102571.76
2022-12-19T07:12:41.838Z,102563.31
2022-12-19T07:15:12.937Z,102563.46
2022-12-19T07:17:42.179Z,102562.39
2022-12-19T07:20:16.070Z,102565.83
2022-12-19T07:22:45.894Z,102569.23
2022-12-19T07:25:17.146Z,102568.51
2022-12-19T07:27:47.745Z,102569.42
2022-12-19T07:30:17.407Z,102556.80
2022-12-19T07:32:46.484Z,102557.69
2022-12-19T07:35:17.863Z,102555.31
2022-12-19T07:37:53.840Z,102552.06
2022-12-19T07:40:23.402Z,102559.09
2022-12-19T07:42:52.406Z,102556.88
2022-12-19T07:45:21.413Z,102557.21
2022-12-19T07:47:53.414Z,102549.06
2022-12-19T07:50:22.303Z,102546.14
2022-12-19T07:52:51.229Z,102547.36
2022-12-19T07:55:23.767Z,102543.53
2022-12-19T07:57:55.841Z,102539.73
2022-12-19T08:00:24.866Z,102542.56
2022-12-19T08:02:53.683Z,102540.52
2022-12-19T08:05:24.209Z,102533.42
2022-12-19T08:07:56.476Z,102534.83
2022-12-19T08:10:25.246Z,102535.45
2022-12-19T08:12:54.001Z,102534.32
2022-12-19T08:15:25.403Z,102532.39
2022-12-19T08:17:56.027Z,102530.34
2022-12-19T08:20:24.763Z,102526.83
2022-12-19T08:22:53.580Z,102528.55
2022-12-19T08:25:22.703Z,102529.31
2022-12-19T08:27:51.476Z,102517.48
2022-12-19T08:30:20.276Z,102520.80
2022-12-19T08:32:49.097Z,102519.21
2022-12-19T08:35:19.155Z,102514.95
2022-12-19T08:37:48.303Z,102517.34
2022-12-19T08:40:18.195Z,102504.61
2022-12-19T08:42:47.085Z,102504.63
2022-12-19T08:45:18.741Z,102502.31
2022-12-19T08:47:47.897Z,102492.94
2022-12-19T08:50:19.380Z,102491.17
2022-12-19T08:52:48.178Z,102491.06
2022-12-19T08:55:18.226Z,102489.44
2022-12-19T08:57:49.475Z,102483.18
2022-12-19T09:00:20.243Z,102478.74
2022-12-19T09:02:55.214Z,102475.31
2022-12-19T09:05:57.446Z,102480.53
2022-12-19T09:08:12.453Z,102472.66
2022-12-19T09:10:47.659Z,102467.36
2022-12-19T09:13:17.601Z,102462.73
2022-12-19T09:15:48.762Z,102456.64
2022-12-19T09:18:18.405Z,102446.47
2022-12-19T09:20:53.097Z,102438.72
2022-12-19T09:23:22.790Z,102436.74
2022-12-19T09:25:51.989Z,102436.43
2022-12-19T09:28:28.485Z,102426.58
2022-12-19T09:30:58.546Z,102436.11
2022-12-19T09:33:27.963Z,102415.83
2022-12-19T09:35:57.468Z,102414.33
2022-12-19T09:38:29.387Z,102420.45
2022-12-19T09:44:16.184Z,102393.53
2022-12-19T09:46:51.582Z,102389.92
2022-12-19T09:49:24.405Z,102383.15
2022-12-19T09:52:00.573Z,102372.94
2022-12-19T09:54:35.564Z,102359.34
2022-12-19T09:57:12.352Z,102346.97
2022-12-19T09:59:50.135Z,102338.17
2022-12-19T10:02:39.105Z,102339.77
2022-12-19T10:05:46.623Z,102328.17
2022-12-19T10:08:23.653Z,102314.68
2022-12-19T10:12:39.193Z,102314.70
2022-12-19T10:14:21.116Z,102316.75
2022-12-19T10:17:23.815Z,102312.23
2022-12-19T10:20:12.037Z,102305.31
2022-12-19T10:22:52.710Z,102297.41
2022-12-19T10:25:43.119Z,102287.61
2022-12-19T10:28:32.683Z,102277.08
2022-12-19T10:31:17.268Z,102273.19
2022-12-19T10:33:57.826Z,102268.11
2022-12-19T10:37:11.918Z,102264.09
2022-12-19T10:39:29.172Z,102261.08
2022-12-19T10:42:08.154Z,102263.87
2022-12-19T10:44:40.297Z,102259.66
2022-12-19T10:47:15.732Z,102252.73
2022-12-19T10:49:44.816Z,102252.18
2022-12-19T10:52:47.198Z,102244.92
2022-12-19T10:55:47.522Z,102227.55
2022-12-19T10:58:22.779Z,102234.45
2022-12-19T11:01:16.877Z,102234.86
2022-12-19T11:03:53.407Z,102232.39
2022-12-19T11:06:44.119Z,102228.91
2022-12-19T11:09:30.416Z,102227.99
2022-12-19T11:13:32.266Z,102222.62
2022-12-19T11:20:42.165Z,102224.47
2022-12-19T11:27:29.564Z,102218.62
2022-12-19T11:29:34.765Z,102220.34
2022-12-19T11:29:37.684Z,102225.88
2022-12-19T11:29:41.739Z,102215.70
2022-12-19T11:32:44.859Z,102209.80
2022-12-19T11:35:24.810Z,102196.71
2022-12-19T11:38:07.777Z,102201.25
2022-12-19T11:40:53.058Z,102207.40
2022-12-19T11:43:47.992Z,102209.98
2022-12-19T11:46:30.440Z,102202.63
2022-12-19T11:49:11.297Z,102189.16
2022-12-19T11:51:49.088Z,102188.66
2022-12-19T11:54:26.859Z,102185.09
2022-12-19T11:57:12.114Z,102179.02
2022-12-19T11:59:42.988Z,102182.06
2022-12-19T12:02:39.201Z,102177.73
2022-12-19T12:05:44.378Z,102171.02
2022-12-19T12:11:05.309Z,102165.27
2022-12-19T12:19:18.836Z,102143.39
2022-12-19T12:24:53.591Z,102142.09
2022-12-19T12:31:04.227Z,102143.22
2022-12-19T12:31:18.864Z,102146.92
2022-12-19T12:31:47.164Z,102134.56
2022-12-19T12:31:47.730Z,102119.52
2022-12-19T12:32:04.001Z,102144.59
2022-12-19T12:35:35.105Z,102106.92
2022-12-19T12:39:35.775Z,102111.77
2022-12-19T12:42:16.111Z,102113.19
2022-12-19T12:44:51.127Z,102108.50
2022-12-19T12:47:24.112Z,102098.72
2022-12-19T12:50:16.735Z,102100.00
2022-12-19T12:52:57.596Z,102099.52
2022-12-19T12:55:29.972Z,102086.30
2022-12-19T12:57:59.373Z,102084.41
2022-12-19T13:00:30.426Z,102088.36
2022-12-19T13:03:11.258Z,102090.65
2022-12-19T13:06:03.272Z,102087.77
2022-12-19T13:08:49.091Z,102087.29
2022-12-19T13:12:06.125Z,102091.10
2022-12-19T13:14:50.160Z,102094.03
2022-12-19T13:17:47.414Z,102091.23
2022-12-19T13:20:48.260Z,102072.19
2022-12-19T13:23:34.148Z,102059.11
2022-12-19T13:26:04.798Z,102049.45
2022-12-19T13:28:42.978Z,102060.27
2022-12-19T13:31:22.767Z,102048.81
2022-12-19T13:34:19.224Z,102053.67
2022-12-19T13:39:50.749Z,102043.13
2022-12-19T13:40:13.575Z,102040.08
2022-12-19T13:43:30.688Z,102032.95
2022-12-19T13:46:02.136Z,102025.86
2022-12-19T13:48:34.003Z,102024.73
2022-12-19T13:51:10.934Z,102025.34
2022-12-19T13:53:45.027Z,102028.27
2022-12-19T13:56:19.008Z,102026.37
2022-12-19T13:58:53.413Z,102020.15
2022-12-19T14:01:29.476Z,102014.69
2022-12-19T14:04:07.884Z,102012.65
2022-12-19T14:06:43.162Z,102015.72
2022-12-19T14:11:28.262Z,102010.38
2022-12-19T14:13:48.157Z,101999.69
2022-12-19T14:15:58.734Z,101990.94
2022-12-19T14:18:45.039Z,101997.41
2022-12-19T14:22:05.734Z,101995.36
2022-12-19T14:24:25.925Z,101993.35
2022-12-19T14:28:20.125Z,101983.05
2022-12-19T14:30:30.464Z,101984.45
2022-12-19T14:33:44.776Z,101977.59
2022-12-19T14:36:09.964Z,101978.98
2022-12-19T14:39:23.276Z,101966.94
2022-12-19T14:42:13.651Z,101959.06
2022-12-19T14:53:34.303Z,101960.46
2022-12-19T14:53:51.781Z,101952.58
2022-12-19T14:54:16.122Z,101947.27
2022-12-19T14:57:25.327Z,101943.33
2022-12-19T15:01:09.607Z,101931.25
2022-12-19T15:03:23.718Z,101921.75
2022-12-19T15:07:05.231Z,101920.72
2022-12-19T15:10:58.596Z,101922.38
2022-12-19T15:14:20.714Z,101924.77
2022-12-19T15:15:34.269Z,101915.41
2022-12-19T15:18:18.039Z,101915.27
2022-12-19T15:21:00.987Z,101895.88
2022-12-19T15:23:34.009Z,101896.64
2022-12-19T15:26:08.470Z,101894.10
2022-12-19T15:28:43.313Z,101900.95
2022-12-19T15:31:36.635Z,101886.48
2022-12-19T15:34:39.253Z,101894.10
2022-12-19T15:37:10.275Z,101885.58
2022-12-19T15:39:41.379Z,101876.34
2022-12-19T15:42:22.619Z,101864.54
2022-12-19T15:44:57.821Z,101858.70
2022-12-19T15:47:32.177Z,101861.36
2022-12-19T15:50:14.058Z,101853.90
2022-12-19T15:55:35.496Z,101889.80
2022-12-19T15:58:06.944Z,101883.31
2022-12-19T16:00:37.424Z,101871.77
2022-12-19T16:03:27.199Z,101866.95
2022-12-19T16:05:57.153Z,101845.15
2022-12-19T16:08:27.901Z,101842.72
2022-12-19T16:11:07.109Z,101839.54
2022-12-19T16:13:36.851Z,101834.61
2022-12-19T16:16:15.767Z,101824.58
2022-12-19T16:18:47.038Z,101837.37
2022-12-19T16:21:33.702Z,101848.55
2022-12-19T16:24:06.640Z,101841.84
2022-12-19T16:26:40.261Z,101824.08
2022-12-19T16:29:19.966Z,101813.16
2022-12-19T16:31:49.276Z,101808.96
2022-12-19T16:34:24.546Z,101799.57
2022-12-19T16:36:54.350Z,101797.18
2022-12-19T16:39:23.229Z,101793.73
2022-12-19T16:41:52.232Z,101785.25
2022-12-19T16:44:23.211Z,101786.88
2022-12-19T16:46:54.773Z,101782.71
2022-12-19T16:49:24.640Z,101782.71
2022-12-19T16:51:54.342Z,101776.73
2022-12-19T16:54:31.887Z,101763.17
2022-12-19T16:57:06.076Z,101760.63
2022-12-19T16:59:41.196Z,101763.94
2022-12-19T17:02:46.506Z,101746.17
2022-12-19T17:05:29.367Z,101747.80
2022-12-19T17:08:10.518Z,101757.95
2022-12-19T17:10:48.335Z,101748.81
2022-12-19T17:13:19.274Z,101733.73
2022-12-19T17:15:57.088Z,101724.45
2022-12-19T17:18:34.820Z,101724.57
2022-12-19T17:21:11.856Z,101722.94
2022-12-19T17:23:48.355Z,101712.13
2022-12-19T17:26:29.663Z,101712.39
2022-12-19T17:28:58.519Z,101710.09
2022-12-19T17:31:37.439Z,101712.23
2022-12-19T17:34:26.530Z,101714.13
2022-12-19T17:36:58.052Z,101705.95
2022-12-19T17:39:29.815Z,101700.26
2022-12-19T17:42:05.905Z,101709.87
2022-12-19T17:44:38.150Z,101710.12
2022-12-19T17:47:07.667Z,101708.70
2022-12-19T17:49:36.842Z,101707.28
2022-12-19T17:52:14.216Z,101700.67
2022-12-19T17:54:44.837Z,101696.71
2022-12-19T17:57:19.054Z,101695.18
2022-12-19T17:59:49.919Z,101697.09
2022-12-19T18:02:26.530Z,101690.45
2022-12-19T18:05:01.154Z,101685.63
2022-12-19T18:07:34.615Z,101691.70
2022-12-19T18:10:14.384Z,101682.56
2022-12-19T18:12:45.700Z,101685.20
2022-12-19T18:15:15.803Z,101690.53
2022-12-19T18:17:47.928Z,101680.61
2022-12-19T18:20:31.206Z,101677.52
2022-12-19T18:23:19.056Z,101671.14
2022-12-19T18:25:54.823Z,101662.09
2022-12-19T18:28:28.928Z,101662.44
2022-12-19T18:31:07.122Z,101645.76
2022-12-19T18:33:41.045Z,101654.39
2022-12-19T18:36:36.358Z,101648.78
2022-12-19T18:39:06.770Z,101645.57
2022-12-19T18:41:39.050Z,101649.12
2022-12-19T18:44:08.126Z,101643.37
2022-12-19T18:46:41.965Z,101641.06
2022-12-19T18:49:14.618Z,101642.17
2022-12-19T18:51:44.706Z,101627.16
2022-12-19T18:54:19.854Z,101620.50
2022-12-19T18:56:49.288Z,101618.19
2022-12-19T18:59:21.969Z,101615.11
2022-12-19T19:01:51.860Z,101615.21
2022-12-19T19:04:24.507Z,101615.55
2022-12-19T19:06:56.942Z,101619.09
2022-12-19T19:09:28.810Z,101615.98
2022-12-19T19:15:12.584Z,101601.25
2022-12-19T19:17:43.714Z,101598.93
2022-12-19T19:20:14.536Z,101605.25
2022-12-19T19:22:44.568Z,101589.22
2022-12-19T19:25:18.279Z,101592.86
2022-12-19T19:27:48.073Z,101590.55
2022-12-19T19:30:21.230Z,101596.59
2022-12-19T19:32:57.063Z,101583.33
2022-12-19T19:35:29.819Z,101577.47
2022-12-19T19:38:15.789Z,101570.06
2022-12-19T19:40:48.413Z,101567.71
2022-12-19T19:43:20.487Z,101561.84
2022-12-19T19:45:51.314Z,101554.44
2022-12-19T19:48:21.636Z,101555.44
2022-12-19T19:50:50.693Z,101547.12
2022-12-19T19:53:21.318Z,101548.89
2022-12-19T19:55:56.396Z,101545.67
2022-12-19T19:58:25.497Z,101548.34
2022-12-19T20:00:55.981Z,101543.44
2022-12-19T20:03:26.502Z,101543.57
2022-12-19T20:06:14.188Z,101547.11
2022-12-19T20:08:43.338Z,101541.34
2022-12-19T20:11:13.155Z,101550.06
2022-12-19T20:13:45.688Z,101542.66
2022-12-19T20:16:19.817Z,101541.19
2022-12-19T20:18:50.239Z,101528.56
2022-12-19T20:21:24.444Z,101522.91
2022-12-19T20:23:55.970Z,101514.49
2022-12-19T20:26:29.721Z,101512.13
2022-12-19T20:28:58.644Z,101511.48
2022-12-19T20:31:27.798Z,101514.21
2022-12-19T20:33:56.748Z,101505.92
2022-12-19T20:36:26.149Z,101509.55
2022-12-19T20:38:55.568Z,101506.31
2022-12-19T20:41:30.763Z,101508.17
2022-12-19T20:44:03.563Z,101498.98
2022-12-19T20:46:35.190Z,101497.52
2022-12-19T20:49:04.409Z,101507.83
2022-12-19T20:51:34.338Z,101500.28
2022-12-19T20:54:04.653Z,101503.04
2022-12-19T20:56:34.670Z,101494.62
2022-12-19T20:59:09.902Z,101493.06
2022-12-19T21:01:40.931Z,101486.38
2022-12-19T21:04:10.313Z,101486.59
2022-12-19T21:06:40.978Z,101475.70
2022-12-19T21:09:14.324Z,101475.91
2022-12-19T21:11:43.169Z,101465.03
2022-12-19T21:14:12.233Z,101466.02
2022-12-19T21:16:41.174Z,101461.05
2022-12-19T21:19:11.289Z,101455.17
2022-12-19T21:21:40.600Z,101452.80
2022-12-19T21:24:10.417Z,101444.38
2022-12-19T21:26:40.363Z,101448.77
2022-12-19T21:29:11.364Z,101440.34
2022-12-19T21:31:40.665Z,101438.91
2022-12-19T21:34:12.467Z,101438.21
2022-12-19T21:36:41.476Z,101430.77
2022-12-19T21:39:12.585Z,101425.84
2022-12-19T21:41:44.400Z,101423.50
2022-12-19T21:44:13.143Z,101421.16
2022-12-19T21:46:42.034Z,101417.13
2022-12-19T21:49:14.372Z,101409.67
2022-12-19T21:51:43.120Z,101410.75
2022-12-19T21:54:12.094Z,101398.20
2022-12-19T21:56:41.888Z,101395.03
2022-12-19T21:59:14.023Z,101385.03
2022-12-19T22:01:43.889Z,101376.77
2022-12-19T22:04:15.381Z,101368.52
2022-12-19T22:06:44.902Z,101366.95
2022-12-19T22:09:15.429Z,101358.72
2022-12-19T22:11:44.772Z,101357.31
2022-12-19T22:14:15.472Z,101357.50
2022-12-19T22:16:51.602Z,101349.22
2022-12-19T22:19:22.475Z,101347.84
2022-12-19T22:21:51.371Z,101349.69
2022-12-19T22:24:24.323Z,101336.27
2022-12-19T22:26:53.149Z,101338.97
2022-12-19T22:29:25.621Z,101334.92
2022-12-19T22:31:54.532Z,101328.36
2022-12-19T22:34:23.596Z,101328.52
2022-12-19T22:36:54.416Z,101323.68
2022-12-19T22:39:24.094Z,101311.89
2022-12-19T22:41:52.957Z,101312.95
2022-12-19T22:44:26.920Z,101310.58
2022-12-19T22:46:55.627Z,101310.84
2022-12-19T22:49:24.556Z,101298.19
2022-12-19T22:51:53.371Z,101300.90
2022-12-19T22:54:24.311Z,101300.11
2022-12-19T22:56:53.365Z,101301.16
2022-12-19T22:59:22.303Z,101297.03
2022-12-19T23:01:52.572Z,101292.97
2022-12-19T23:04:21.817Z,101286.28
2022-12-19T23:06:51.152Z,101290.78
2022-12-19T23:09:20.998Z,101278.20
2022-12-19T23:11:50.297Z,101278.45
2022-12-19T23:14:20.395Z,101271.05
2022-12-19T23:16:54.690Z,101267.85
2022-12-19T23:19:23.656Z,101261.34
2022-12-19T23:21:52.524Z,101265.02
2022-12-19T23:24:22.085Z,101259.29
2022-12-19T23:26:51.008Z,101253.56
2022-12-19T23:29:22.122Z,101246.94
2022-12-19T23:31:51.179Z,101249.74
2022-12-19T23:34:21.345Z,101250.78
2022-12-19T23:39:41.709Z,101244.41
2022-12-19T23:42:10.563Z,101248.03
2022-12-19T23:44:39.656Z,101240.61
2022-12-19T23:47:08.372Z,101244.20
2022-12-19T23:49:37.081Z,101241.02
2022-12-19T23:52:06.235Z,101242.92
2022-12-19T23:54:35.631Z,101242.30
2022-12-19T23:57:04.487Z,101239.08
2022-12-19T23:59:34.174Z,101242.70
